METAR Data
IDs: Format: Raw Decoded Include TAF

Data at: 0351 UTC 06 Dec 2019

METAR for:EBFS (Florennes(AB), --, BX)
Text:EBFS 060325Z AUTO 17012KT 7000 OVC003/// M02/M02 Q1016 YLO
Temperature: -2.0°C ( 28°F)
Dewpoint: -2.0°C ( 28°F) [RH = 100%]
Pressure (altimeter):30.00 inches Hg (1016.0 mb)
Winds:from the S (170 degrees) at 14 MPH (12 knots; 6.2 m/s)
Visibility: 4 sm ( 7 km)
Ceiling:300 feet AGL
Clouds: overcast cloud deck at 300 feet AGL

TAF for:EBFS (Florennes(AB), --, BX)
Text:No data found